16:10
Airports
Links
Donate
Help keep this website running!
PayPal
Bitcoin
METAR
KVJI 191555Z AUTO 26003KT 10SM CLR 18/06 A3036 RMK AO2 T01770063
Current Weather Conditions at KVJI
VFR 15:55:00 19-10-17
Automated station, no observer
Altimeter:30.36 hg
Temp:17.7°c 63°f
Dew point:6.3°c 43°f
Wind:3 knots, 3.5 mph, 2 m/s, from 260°
Visibility:10.0 statute miles
(CLR) Clear
Past METAR reports
VFR 15:35:00 19-10-17
Automated station, no observer
Altimeter:30.36 hg
Temp:17.0°c 63°f
Dew point:6.0°c 43°f
Wind:5 knots, 5.8 mph, 3 m/s, from 230°
Visibility:10.0 statute miles
(CLR) Clear
KVJI 191535Z AUTO 23005KT 10SM CLR 17/06 A3036 RMK AO2 T01700060
VFR 15:15:00 19-10-17
Automated station, no observer
Altimeter:30.36 hg
Temp:16.5°c 61°f
Dew point:6.7°c 43°f
Wind:3 knots, 3.5 mph, 2 m/s, from 230°
Visibility:10.0 statute miles
(CLR) Clear
KVJI 191515Z AUTO 23003KT 10SM CLR 17/07 A3036 RMK AO2 T01650067
VFR 14:55:00 19-10-17
Automated station, no observer
Altimeter:30.36 hg
Temp:15.7°c 59°f
Dew point:5.8°c 41°f
Wind:0 knots, 0 mph, 0 m/s,
Variable direction
Visibility:10.0 statute miles
(CLR) Clear
KVJI 191455Z AUTO 00000KT 10SM CLR 16/06 A3036 RMK AO2 T01570058
VFR 14:35:00 19-10-17
Automated station, no observer
Altimeter:30.37 hg
Temp:14.8°c 57°f
Dew point:5.0°c 41°f
Wind:0 knots, 0 mph, 0 m/s,
Variable direction
Visibility:10.0 statute miles
(CLR) Clear
KVJI 191435Z AUTO 00000KT 10SM CLR 15/05 A3037 RMK AO2 T01480050
VFR 14:15:00 19-10-17
Automated station, no observer
Altimeter:30.37 hg
Temp:14.0°c 57°f
Dew point:6.6°c 43°f
Wind:0 knots, 0 mph, 0 m/s,
Variable direction
Visibility:10.0 statute miles
(CLR) Clear
KVJI 191415Z AUTO 00000KT 10SM CLR 14/07 A3037 RMK AO2 T01400066
VFR 13:55:00 19-10-17
Automated station, no observer
Altimeter:30.36 hg
Temp:12.5°c 54°f
Dew point:6.5°c 43°f
Wind:0 knots, 0 mph, 0 m/s,
Variable direction
Visibility:10.0 statute miles
(CLR) Clear
KVJI 191355Z AUTO 00000KT 10SM CLR 13/07 A3036 RMK AO2 T01250065
TAF
No TAF for KVJI
Forecast at KVJI
No Forecast Reports for KVJI